Time;durP1;ratioP1;P1;durP2;ratioP2;P2;SDS_P1;SDS_P2;PMS_P1;PMS_P2;Temp;Humidity;BMP_temperature;BMP_pressure;BME280_temperature;BME280_humidity;BME280_pressure;Samples;Min_cycle;Max_cycle;Signal;HPM_P1;HPM_P2
2023/12/14 00:01:29;;;;;;;;;2.33;1.00;;;;;;;;5088571;27;45989;-71
2023/12/14 00:03:54;;;;;;;;;1.67;0.00;;;;;;;;5090622;27;46264;-69
2023/12/14 00:06:19;;;;;;;;;0.67;0.67;;;;;;;;5097501;27;45227;-69
2023/12/14 00:08:44;;;;;;;;;1.00;1.00;;;;;;;;5095944;27;45626;-70
2023/12/14 00:11:10;;;;;;;;;1.00;1.00;;;;;;;;5096910;27;45469;-70
2023/12/14 00:13:36;;;;;;;;;3.33;1.00;;;;;;;;5091776;27;45708;-68
2023/12/14 00:16:01;;;;;;;;;2.00;1.00;;;;;;;;5091127;27;45522;-70
2023/12/14 00:18:26;;;;;;;;;0.00;0.00;;;;;;;;5090977;27;45466;-69
2023/12/14 00:20:52;;;;;;;;;1.00;1.00;;;;;;;;5087923;27;46257;-70
2023/12/14 00:23:17;;;;;;;;;0.00;0.00;;;;;;;;5097036;27;45469;-69
2023/12/14 00:25:42;;;;;;;;;1.00;1.00;;;;;;;;5084725;27;45410;-70
2023/12/14 00:28:08;;;;;;;;;2.00;1.00;;;;;;;;5087768;27;45447;-69
2023/12/14 00:30:33;;;;;;;;;2.00;1.00;;;;;;;;5082404;27;46695;-68
2023/12/14 00:32:58;;;;;;;;;0.00;0.00;;;;;;;;5091461;27;45410;-69
2023/12/14 00:35:23;;;;;;;;;2.00;0.00;;;;;;;;5090419;27;45559;-70
2023/12/14 00:37:48;;;;;;;;;1.33;1.00;;;;;;;;5080281;27;45574;-69
2023/12/14 00:40:13;;;;;;;;;0.00;0.00;;;;;;;;5098635;27;46446;-70
2023/12/14 00:42:39;;;;;;;;;3.00;1.00;;;;;;;;5095661;27;45386;-69
2023/12/14 00:45:04;;;;;;;;;0.67;0.00;;;;;;;;5086992;27;45298;-69
2023/12/14 00:47:29;;;;;;;;;0.00;0.00;;;;;;;;5091136;27;45247;-70
2023/12/14 00:49:54;;;;;;;;;0.00;0.00;;;;;;;;5083997;27;45348;-69
2023/12/14 00:52:20;;;;;;;;;3.00;0.00;;;;;;;;5090231;27;45474;-68
2023/12/14 00:54:45;;;;;;;;;4.00;1.00;;;;;;;;5081064;27;45335;-69
2023/12/14 00:57:10;;;;;;;;;0.00;0.00;;;;;;;;5083567;27;45199;-68
2023/12/14 00:59:35;;;;;;;;;2.00;0.00;;;;;;;;5083056;27;45642;-72
2023/12/14 01:02:00;;;;;;;;;0.00;0.00;;;;;;;;5078622;27;45444;-69
2023/12/14 01:04:26;;;;;;;;;0.33;0.33;;;;;;;;5097602;27;45334;-71
2023/12/14 01:06:51;;;;;;;;;0.00;0.00;;;;;;;;5093353;27;45398;-69
2023/12/14 01:09:16;;;;;;;;;0.00;0.00;;;;;;;;5091971;27;46314;-71
2023/12/14 01:11:41;;;;;;;;;1.00;1.00;;;;;;;;5096409;27;45350;-69
2023/12/14 01:14:06;;;;;;;;;0.00;0.00;;;;;;;;5091576;27;45239;-69
2023/12/14 01:16:31;;;;;;;;;0.33;0.00;;;;;;;;5087112;27;45741;-69
2023/12/14 01:18:57;;;;;;;;;1.00;0.00;;;;;;;;5087685;27;45476;-68
2023/12/14 01:21:22;;;;;;;;;0.67;0.67;;;;;;;;5097443;27;45461;-69
2023/12/14 01:23:49;;;;;;;;;0.00;0.00;;;;;;;;5087960;27;45518;-69
2023/12/14 01:26:14;;;;;;;;;0.00;0.00;;;;;;;;5095510;27;45483;-70
2023/12/14 01:28:39;;;;;;;;;2.00;0.00;;;;;;;;5097584;27;46677;-68
2023/12/14 01:31:04;;;;;;;;;1.00;0.00;;;;;;;;5089753;27;45228;-71
2023/12/14 01:33:29;;;;;;;;;2.00;0.00;;;;;;;;5096900;27;45325;-69
2023/12/14 01:35:54;;;;;;;;;0.67;0.67;;;;;;;;5097918;27;46853;-68
2023/12/14 01:38:20;;;;;;;;;1.67;1.00;;;;;;;;5098187;27;45666;-69
2023/12/14 01:40:45;;;;;;;;;0.00;0.00;;;;;;;;5097699;27;45471;-70
2023/12/14 01:43:10;;;;;;;;;1.00;0.00;;;;;;;;5093298;27;45363;-69
2023/12/14 01:45:36;;;;;;;;;0.00;0.00;;;;;;;;5096575;27;45270;-69
2023/12/14 01:48:01;;;;;;;;;0.00;0.00;;;;;;;;5096464;27;45852;-69
2023/12/14 01:50:26;;;;;;;;;1.00;0.00;;;;;;;;5097813;27;45439;-68
2023/12/14 01:52:51;;;;;;;;;1.00;0.00;;;;;;;;5097818;27;45591;-69
2023/12/14 01:55:17;;;;;;;;;0.00;0.00;;;;;;;;5098211;27;45428;-67
2023/12/14 01:57:42;;;;;;;;;0.00;0.00;;;;;;;;5091712;27;45424;-68
2023/12/14 02:00:13;;;;;;;;;0.33;0.00;;;;;;;;5098044;27;45425;-69
2023/12/14 02:02:40;;;;;;;;;0.00;0.00;;;;;;;;5084812;27;45222;-71
2023/12/14 02:05:05;;;;;;;;;0.00;0.00;;;;;;;;5098345;27;45324;-70
2023/12/14 02:07:30;;;;;;;;;0.00;0.00;;;;;;;;5092865;27;46199;-70
2023/12/14 02:09:55;;;;;;;;;0.00;0.00;;;;;;;;5096494;27;45532;-69
2023/12/14 02:12:20;;;;;;;;;2.67;0.33;;;;;;;;5090057;27;45614;-69
2023/12/14 02:14:48;;;;;;;;;0.00;0.00;;;;;;;;5098096;27;45403;-69
2023/12/14 02:17:13;;;;;;;;;0.00;0.00;;;;;;;;5096703;27;46525;-69
2023/12/14 02:19:38;;;;;;;;;0.00;0.00;;;;;;;;5097858;27;45439;-69
2023/12/14 02:22:03;;;;;;;;;0.00;0.00;;;;;;;;5093013;27;45411;-69
2023/12/14 02:24:28;;;;;;;;;0.00;0.00;;;;;;;;5096073;27;45534;-69
2023/12/14 02:26:54;;;;;;;;;0.00;0.00;;;;;;;;5097393;27;46783;-69
2023/12/14 02:29:19;;;;;;;;;0.00;0.00;;;;;;;;5095775;27;45331;-69
2023/12/14 02:31:46;;;;;;;;;0.00;0.00;;;;;;;;5095314;27;45581;-70
2023/12/14 02:34:11;;;;;;;;;0.00;0.00;;;;;;;;5083443;27;45574;-69
2023/12/14 02:36:36;;;;;;;;;0.00;0.00;;;;;;;;5096351;27;45569;-68
2023/12/14 02:39:02;;;;;;;;;2.00;0.00;;;;;;;;5097570;27;45258;-71
2023/12/14 02:41:27;;;;;;;;;0.00;0.00;;;;;;;;5095879;27;45425;-70
2023/12/14 02:43:52;;;;;;;;;0.00;0.00;;;;;;;;5095513;27;45421;-69
2023/12/14 02:46:18;;;;;;;;;0.67;0.00;;;;;;;;5096778;27;46716;-69
2023/12/14 02:48:43;;;;;;;;;0.67;0.67;;;;;;;;5097449;27;45454;-70
2023/12/14 02:51:12;;;;;;;;;0.00;0.00;;;;;;;;5096567;27;45168;-71
2023/12/14 02:53:37;;;;;;;;;0.00;0.00;;;;;;;;5097231;27;45336;-70
2023/12/14 02:56:02;;;;;;;;;0.00;0.00;;;;;;;;5094844;27;46721;-68
2023/12/14 02:58:27;;;;;;;;;0.00;0.00;;;;;;;;5097035;27;45274;-69
2023/12/14 03:00:53;;;;;;;;;1.00;0.00;;;;;;;;5093806;27;45285;-70
2023/12/14 03:03:18;;;;;;;;;0.00;0.00;;;;;;;;5093657;27;45297;-69
2023/12/14 03:05:43;;;;;;;;;0.00;0.00;;;;;;;;5095843;27;46582;-69
2023/12/14 03:08:08;;;;;;;;;0.00;0.00;;;;;;;;5096083;27;45299;-70
2023/12/14 03:10:33;;;;;;;;;1.67;0.00;;;;;;;;5096408;27;45488;-69
2023/12/14 03:12:59;;;;;;;;;0.00;0.00;;;;;;;;5096551;27;45360;-69
2023/12/14 03:15:24;;;;;;;;;0.00;0.00;;;;;;;;5095614;27;45290;-69
2023/12/14 03:17:49;;;;;;;;;0.00;0.00;;;;;;;;5095717;27;45331;-70
2023/12/14 03:20:14;;;;;;;;;1.00;0.00;;;;;;;;5096911;27;45443;-69
2023/12/14 03:22:40;;;;;;;;;1.00;0.00;;;;;;;;5091174;27;45378;-68
2023/12/14 03:25:05;;;;;;;;;0.00;0.00;;;;;;;;5096657;27;45402;-69
2023/12/14 03:27:30;;;;;;;;;0.00;0.00;;;;;;;;5095936;27;45334;-68
2023/12/14 03:29:56;;;;;;;;;0.00;0.00;;;;;;;;5098789;27;45404;-68
2023/12/14 03:32:21;;;;;;;;;0.00;0.00;;;;;;;;5097736;27;45650;-70
2023/12/14 03:34:46;;;;;;;;;1.00;0.00;;;;;;;;5093681;27;47036;-70
2023/12/14 03:37:11;;;;;;;;;0.00;0.00;;;;;;;;5099979;27;45220;-69
2023/12/14 03:39:36;;;;;;;;;2.33;0.00;;;;;;;;5100176;27;45186;-69
2023/12/14 03:42:02;;;;;;;;;2.00;0.00;;;;;;;;5094255;27;45191;-69
2023/12/14 03:44:27;;;;;;;;;0.00;0.00;;;;;;;;5090541;27;46555;-70
2023/12/14 03:46:54;;;;;;;;;0.00;0.00;;;;;;;;5098552;27;45202;-67
2023/12/14 03:49:19;;;;;;;;;2.00;0.00;;;;;;;;5099485;27;45436;-69
2023/12/14 03:51:44;;;;;;;;;0.00;0.00;;;;;;;;5096141;27;45425;-70
2023/12/14 03:54:09;;;;;;;;;0.67;0.67;;;;;;;;5096282;27;46700;-72
2023/12/14 03:56:34;;;;;;;;;0.33;0.00;;;;;;;;5100109;27;45435;-69
2023/12/14 03:59:00;;;;;;;;;0.00;0.00;;;;;;;;5100077;27;45429;-71
2023/12/14 04:20:48;;;;;;;;;1.00;1.00;;;;;;;;5094230;27;67201;-68
2023/12/14 04:23:13;;;;;;;;;1.00;1.00;;;;;;;;5094244;27;45853;-71
2023/12/14 04:25:38;;;;;;;;;3.00;1.00;;;;;;;;5091364;27;45468;-69
2023/12/14 04:28:04;;;;;;;;;2.33;2.33;;;;;;;;5093725;27;45388;-69
2023/12/14 04:30:29;;;;;;;;;3.33;2.00;;;;;;;;5099106;27;45180;-69
2023/12/14 04:32:54;;;;;;;;;5.33;2.33;;;;;;;;5098911;27;45840;-71
2023/12/14 04:35:22;;;;;;;;;1.00;1.00;;;;;;;;5099202;27;45451;-68
2023/12/14 04:37:47;;;;;;;;;3.67;2.33;;;;;;;;5098192;27;45352;-69
2023/12/14 04:40:12;;;;;;;;;3.00;1.00;;;;;;;;5088671;27;45626;-68
2023/12/14 04:42:37;;;;;;;;;3.67;1.33;;;;;;;;5096393;27;45407;-69
2023/12/14 04:45:03;;;;;;;;;2.00;2.00;;;;;;;;5091682;27;45448;-68
2023/12/14 04:47:28;;;;;;;;;2.00;2.00;;;;;;;;5098605;27;45509;-69
2023/12/14 04:49:53;;;;;;;;;5.00;2.00;;;;;;;;5092756;27;45376;-70
2023/12/14 04:52:19;;;;;;;;;1.33;1.33;;;;;;;;5096419;27;45414;-69
2023/12/14 04:54:44;;;;;;;;;3.67;1.67;;;;;;;;5098867;27;45459;-70
2023/12/14 04:57:09;;;;;;;;;5.33;2.00;;;;;;;;5099140;27;45410;-70
2023/12/14 04:59:34;;;;;;;;;8.00;2.67;;;;;;;;5098908;27;45297;-69
2023/12/14 05:02:00;;;;;;;;;2.67;1.33;;;;;;;;5094760;27;45447;-69
2023/12/14 05:04:25;;;;;;;;;5.33;2.00;;;;;;;;5098605;27;45337;-69
2023/12/14 05:06:50;;;;;;;;;2.67;2.67;;;;;;;;5096463;27;45660;-68
2023/12/14 05:09:15;;;;;;;;;6.67;2.33;;;;;;;;5095785;27;45482;-70
2023/12/14 05:11:40;;;;;;;;;8.00;4.00;;;;;;;;5090277;27;46601;-70
2023/12/14 05:14:06;;;;;;;;;3.67;2.00;;;;;;;;5098464;27;45298;-69
2023/12/14 05:16:31;;;;;;;;;5.33;2.00;;;;;;;;5098611;27;45509;-70
2023/12/14 05:18:57;;;;;;;;;7.00;2.33;;;;;;;;5098886;27;45418;-71
2023/12/14 05:21:22;;;;;;;;;4.00;3.33;;;;;;;;5085373;27;46056;-69
2023/12/14 05:23:47;;;;;;;;;4.00;2.00;;;;;;;;5098510;27;45364;-69
2023/12/14 05:26:12;;;;;;;;;4.33;2.33;;;;;;;;5098371;27;45411;-68
2023/12/14 05:28:38;;;;;;;;;3.67;2.00;;;;;;;;5098318;27;45416;-70
2023/12/14 05:31:03;;;;;;;;;7.00;3.00;;;;;;;;5097512;27;46552;-70
2023/12/14 05:33:31;;;;;;;;;2.33;2.00;;;;;;;;5097424;27;45426;-70
2023/12/14 05:35:56;;;;;;;;;5.33;2.00;;;;;;;;5098880;27;45295;-68
2023/12/14 05:38:21;;;;;;;;;6.67;2.67;;;;;;;;5096984;27;45812;-69
2023/12/14 05:40:46;;;;;;;;;7.00;3.00;;;;;;;;5092616;27;45497;-71
2023/12/14 05:43:11;;;;;;;;;3.33;2.00;;;;;;;;5090178;27;45630;-69
2023/12/14 05:45:37;;;;;;;;;3.33;2.67;;;;;;;;5096433;27;45416;-68
2023/12/14 05:48:05;;;;;;;;;4.33;1.67;;;;;;;;5098056;27;45625;-67
2023/12/14 05:50:30;;;;;;;;;3.00;3.00;;;;;;;;5092158;27;45911;-68
2023/12/14 05:52:55;;;;;;;;;7.00;2.67;;;;;;;;5096787;27;45340;-69
2023/12/14 05:55:21;;;;;;;;;3.00;2.00;;;;;;;;5097608;27;45499;-70
2023/12/14 05:57:47;;;;;;;;;5.67;3.00;;;;;;;;5097726;27;45434;-69
2023/12/14 06:00:13;;;;;;;;;8.00;1.33;;;;;;;;5096185;27;46093;-69
2023/12/14 06:02:38;;;;;;;;;2.00;1.00;;;;;;;;5230241;22;46144;-69
2023/12/14 06:05:03;;;;;;;;;7.00;2.00;;;;;;;;5072229;28;45609;-69
2023/12/14 06:07:28;;;;;;;;;3.33;2.67;;;;;;;;5092802;27;45569;-69
2023/12/14 06:09:54;;;;;;;;;6.00;2.00;;;;;;;;5092700;27;46906;-71
2023/12/14 06:12:19;;;;;;;;;2.00;2.00;;;;;;;;5094569;27;45308;-70
2023/12/14 06:14:44;;;;;;;;;5.67;2.00;;;;;;;;5097693;27;45317;-69
2023/12/14 06:17:10;;;;;;;;;8.00;3.00;;;;;;;;5097600;27;45413;-69
2023/12/14 06:19:35;;;;;;;;;7.00;2.00;;;;;;;;5096484;27;46251;-70
2023/12/14 06:22:00;;;;;;;;;8.67;3.00;;;;;;;;5097469;27;45467;-70
2023/12/14 06:24:25;;;;;;;;;3.67;2.00;;;;;;;;5096944;27;45218;-70
2023/12/14 06:26:51;;;;;;;;;1.00;1.00;;;;;;;;5097207;27;45302;-69
2023/12/14 06:29:16;;;;;;;;;2.33;1.33;;;;;;;;5094305;27;45629;-67
2023/12/14 06:31:41;;;;;;;;;3.00;1.33;;;;;;;;5075065;27;45524;-71
2023/12/14 06:34:06;;;;;;;;;2.33;2.33;;;;;;;;5091439;27;45543;-69
2023/12/14 06:36:32;;;;;;;;;2.00;2.00;;;;;;;;5075459;27;45227;-69
2023/12/14 06:38:57;;;;;;;;;1.00;1.00;;;;;;;;5071048;27;47570;-70
2023/12/14 06:41:23;;;;;;;;;3.33;1.33;;;;;;;;5095729;27;45552;-69
2023/12/14 06:43:48;;;;;;;;;2.00;2.00;;;;;;;;5085868;27;45433;-71
2023/12/14 06:46:14;;;;;;;;;3.67;1.67;;;;;;;;5087582;27;45471;-68
2023/12/14 06:48:39;;;;;;;;;7.33;2.00;;;;;;;;5085405;27;46513;-70
2023/12/14 06:51:04;;;;;;;;;2.00;2.00;;;;;;;;5090021;27;45426;-69
2023/12/14 06:53:30;;;;;;;;;2.00;2.00;;;;;;;;5085206;27;45412;-69
2023/12/14 06:55:55;;;;;;;;;2.00;2.00;;;;;;;;5089367;27;45569;-70
2023/12/14 06:58:20;;;;;;;;;3.00;1.00;;;;;;;;5087270;27;45539;-68
2023/12/14 07:00:45;;;;;;;;;2.00;2.00;;;;;;;;5092160;27;45417;-69
2023/12/14 07:03:11;;;;;;;;;3.00;1.33;;;;;;;;5095060;27;45444;-69
2023/12/14 07:05:36;;;;;;;;;1.00;1.00;;;;;;;;5087514;27;46848;-69
2023/12/14 07:08:01;;;;;;;;;3.00;1.00;;;;;;;;5083754;27;45849;-70
2023/12/14 07:10:26;;;;;;;;;6.00;2.00;;;;;;;;5084488;27;45429;-68
2023/12/14 07:12:52;;;;;;;;;2.33;2.00;;;;;;;;5084488;27;45481;-70
2023/12/14 07:15:18;;;;;;;;;5.00;1.67;;;;;;;;5086146;27;45460;-72
2023/12/14 07:17:43;;;;;;;;;6.33;3.00;;;;;;;;5089757;27;46498;-70
2023/12/14 07:20:09;;;;;;;;;1.00;1.00;;;;;;;;5079521;27;45441;-69
2023/12/14 07:22:34;;;;;;;;;3.67;1.33;;;;;;;;5082118;27;45461;-71
2023/12/14 07:25:00;;;;;;;;;1.00;1.00;;;;;;;;5081330;27;45145;-70
2023/12/14 07:27:25;;;;;;;;;2.67;2.00;;;;;;;;5079438;27;45890;-69
2023/12/14 07:29:50;;;;;;;;;1.00;1.00;;;;;;;;5083509;27;45463;-69
2023/12/14 07:32:15;;;;;;;;;2.33;1.00;;;;;;;;5086126;27;45211;-69
2023/12/14 07:34:41;;;;;;;;;1.00;1.00;;;;;;;;5083717;27;45525;-68
2023/12/14 07:37:06;;;;;;;;;1.00;1.00;;;;;;;;5082098;27;45867;-67
2023/12/14 07:39:31;;;;;;;;;2.00;2.00;;;;;;;;5080452;27;45552;-68
2023/12/14 07:41:56;;;;;;;;;2.00;1.00;;;;;;;;5081786;27;45448;-71
2023/12/14 07:44:22;;;;;;;;;1.00;1.00;;;;;;;;5084692;27;46342;-68
2023/12/14 07:46:47;;;;;;;;;4.00;2.00;;;;;;;;5070564;27;47321;-72
2023/12/14 07:49:12;;;;;;;;;3.00;1.00;;;;;;;;5084786;27;45526;-66
2023/12/14 07:51:38;;;;;;;;;2.33;2.33;;;;;;;;5094776;27;45298;-68
2023/12/14 07:54:04;;;;;;;;;1.00;1.00;;;;;;;;5095921;27;45435;-68
2023/12/14 07:56:29;;;;;;;;;3.33;1.00;;;;;;;;5099477;27;46423;-70
2023/12/14 07:58:54;;;;;;;;;3.00;2.00;;;;;;;;5097992;27;45693;-68
2023/12/14 08:01:20;;;;;;;;;0.33;0.33;;;;;;;;5087215;27;45443;-68
2023/12/14 08:03:46;;;;;;;;;4.00;1.00;;;;;;;;5080686;27;45522;-68
2023/12/14 08:06:11;;;;;;;;;1.00;1.00;;;;;;;;5084039;27;46347;-68
2023/12/14 08:08:37;;;;;;;;;1.00;1.00;;;;;;;;5090791;27;45337;-68
2023/12/14 08:11:03;;;;;;;;;3.33;2.33;;;;;;;;5093949;27;45455;-68
2023/12/14 08:13:28;;;;;;;;;4.33;3.00;;;;;;;;5095862;27;45391;-69
2023/12/14 08:15:53;;;;;;;;;6.00;3.67;;;;;;;;5098356;27;45424;-68
2023/12/14 08:18:18;;;;;;;;;3.00;2.00;;;;;;;;5099383;27;45541;-69
2023/12/14 08:20:43;;;;;;;;;2.33;2.33;;;;;;;;5094764;27;45433;-67
2023/12/14 08:23:09;;;;;;;;;9.00;4.33;;;;;;;;5095465;27;45309;-68
2023/12/14 08:25:34;;;;;;;;;5.33;3.00;;;;;;;;5095751;27;46609;-68
2023/12/14 08:27:59;;;;;;;;;3.00;3.00;;;;;;;;5093295;27;45377;-67
2023/12/14 08:30:24;;;;;;;;;6.33;3.00;;;;;;;;5092337;27;45657;-68
2023/12/14 08:32:49;;;;;;;;;4.33;3.00;;;;;;;;5088168;27;45679;-66
2023/12/14 08:35:14;;;;;;;;;5.67;4.00;;;;;;;;5095791;27;46877;-68
2023/12/14 08:37:40;;;;;;;;;8.00;4.00;;;;;;;;5096806;27;45386;-67
2023/12/14 08:40:05;;;;;;;;;5.33;3.33;;;;;;;;5096563;27;45449;-68
2023/12/14 08:42:30;;;;;;;;;5.67;4.00;;;;;;;;5097461;27;45482;-69
2023/12/14 08:44:56;;;;;;;;;3.00;3.00;;;;;;;;5083791;27;45664;-69
2023/12/14 08:47:21;;;;;;;;;3.00;2.33;;;;;;;;5086530;27;45332;-67
2023/12/14 08:49:46;;;;;;;;;4.33;3.00;;;;;;;;5081636;27;45490;-68
2023/12/14 08:52:11;;;;;;;;;3.00;3.00;;;;;;;;5082511;27;45390;-70
2023/12/14 08:54:37;;;;;;;;;7.00;5.00;;;;;;;;5079649;27;45633;-68
2023/12/14 08:57:02;;;;;;;;;3.00;3.00;;;;;;;;5080315;27;45519;-68
2023/12/14 08:59:27;;;;;;;;;1.00;1.00;;;;;;;;5097699;27;45209;-68
2023/12/14 09:01:52;;;;;;;;;5.00;3.33;;;;;;;;5095102;27;45350;-68
2023/12/14 09:04:18;;;;;;;;;3.33;3.33;;;;;;;;5090348;27;45884;-67
2023/12/14 09:06:44;;;;;;;;;3.00;3.00;;;;;;;;5088372;27;45451;-69
2023/12/14 09:09:10;;;;;;;;;4.00;3.00;;;;;;;;5071766;27;45305;-68
2023/12/14 09:11:36;;;;;;;;;5.33;3.00;;;;;;;;5087491;27;45405;-68
2023/12/14 09:14:02;;;;;;;;;5.33;2.67;;;;;;;;5081811;27;45627;-69
2023/12/14 09:16:27;;;;;;;;;9.33;4.00;;;;;;;;5081948;27;45315;-67
2023/12/14 09:18:52;;;;;;;;;5.00;2.00;;;;;;;;5079815;27;45313;-68
2023/12/14 09:21:18;;;;;;;;;2.00;2.00;;;;;;;;5081914;27;45639;-68
2023/12/14 09:23:43;;;;;;;;;2.00;2.00;;;;;;;;5083788;27;46140;-69
2023/12/14 09:26:08;;;;;;;;;4.00;3.00;;;;;;;;5086404;27;45247;-67
2023/12/14 09:28:33;;;;;;;;;5.00;3.67;;;;;;;;5090807;27;45394;-67
2023/12/14 09:30:58;;;;;;;;;5.00;3.00;;;;;;;;5094746;27;45471;-68
2023/12/14 09:33:23;;;;;;;;;4.67;2.67;;;;;;;;5093065;27;46186;-67
2023/12/14 09:35:49;;;;;;;;;2.67;2.00;;;;;;;;5074349;28;45355;-68
2023/12/14 09:38:17;;;;;;;;;5.00;5.00;;;;;;;;5088622;27;45313;-68
2023/12/14 09:40:43;;;;;;;;;4.00;4.00;;;;;;;;5090607;27;45329;-70
2023/12/14 09:43:08;;;;;;;;;2.67;2.00;;;;;;;;5094138;27;45549;-67
2023/12/14 09:45:34;;;;;;;;;6.33;4.00;;;;;;;;5090555;27;45388;-67
2023/12/14 09:48:00;;;;;;;;;6.00;4.00;;;;;;;;5083321;27;45428;-68
2023/12/14 09:50:25;;;;;;;;;3.00;3.00;;;;;;;;5097791;27;45338;-67
2023/12/14 09:52:51;;;;;;;;;7.00;3.00;;;;;;;;5094390;27;46620;-70
2023/12/14 09:55:16;;;;;;;;;5.67;4.00;;;;;;;;5082794;27;45394;-68
2023/12/14 09:57:41;;;;;;;;;4.00;3.00;;;;;;;;5080436;27;45938;-67
2023/12/14 10:00:10;;;;;;;;;7.00;3.00;;;;;;;;5082142;27;45680;-68
2023/12/14 10:02:36;;;;;;;;;8.00;3.00;;;;;;;;5081576;27;46694;-70
2023/12/14 10:05:01;;;;;;;;;5.67;5.00;;;;;;;;5079715;27;45362;-67
2023/12/14 10:07:26;;;;;;;;;7.67;3.00;;;;;;;;5079869;27;45357;-69
2023/12/14 10:09:53;;;;;;;;;7.00;4.67;;;;;;;;5080085;27;45464;-68
2023/12/14 10:12:18;;;;;;;;;8.00;4.00;;;;;;;;5080901;27;46577;-68
2023/12/14 10:14:43;;;;;;;;;1.67;1.67;;;;;;;;5081260;27;45397;-68
2023/12/14 10:17:16;;;;;;;;;7.67;4.33;;;;;;;;5079332;27;45460;-68
2023/12/14 10:19:45;;;;;;;;;5.33;4.00;;;;;;;;5078028;27;45421;-68
2023/12/14 10:22:10;;;;;;;;;4.33;4.33;;;;;;;;5083302;27;45970;-67
2023/12/14 10:24:35;;;;;;;;;3.00;3.00;;;;;;;;5063698;27;45455;-68
2023/12/14 10:27:04;;;;;;;;;8.67;4.67;;;;;;;;5080008;27;45328;-70
2023/12/14 10:29:32;;;;;;;;;5.00;3.00;;;;;;;;5081520;27;45608;-69
2023/12/14 10:31:58;;;;;;;;;8.67;4.00;;;;;;;;5076480;27;46208;-68
2023/12/14 10:34:23;;;;;;;;;7.67;4.67;;;;;;;;5079223;27;47058;-68
2023/12/14 10:36:48;;;;;;;;;6.33;4.00;;;;;;;;5097292;27;45304;-69
2023/12/14 10:39:15;;;;;;;;;8.00;5.33;;;;;;;;5096579;27;45577;-69
2023/12/14 10:41:41;;;;;;;;;9.67;5.00;;;;;;;;5095499;27;45769;-69
2023/12/14 10:44:06;;;;;;;;;14.00;5.00;;;;;;;;5092711;27;45350;-69
2023/12/14 10:46:32;;;;;;;;;4.00;4.00;;;;;;;;5097624;27;45248;-71
2023/12/14 10:48:57;;;;;;;;;8.00;5.33;;;;;;;;5096960;27;45550;-69
2023/12/14 10:51:25;;;;;;;;;7.00;4.33;;;;;;;;5097317;27;46637;-68
2023/12/14 10:53:51;;;;;;;;;9.00;5.00;;;;;;;;5096900;27;45373;-67
2023/12/14 10:56:17;;;;;;;;;9.33;3.33;;;;;;;;5097416;27;45327;-68
2023/12/14 10:58:48;;;;;;;;;8.00;4.00;;;;;;;;5087446;27;45465;-68
2023/12/14 11:01:18;;;;;;;;;7.00;7.00;;;;;;;;5092724;27;46090;-69
2023/12/14 11:03:44;;;;;;;;;7.33;5.00;;;;;;;;5096711;27;45301;-68
2023/12/14 11:06:24;;;;;;;;;5.67;4.00;;;;;;;;5095734;27;45448;-70
2023/12/14 11:08:50;;;;;;;;;8.00;3.00;;;;;;;;5090258;27;45560;-67
2023/12/14 11:11:20;;;;;;;;;3.67;3.00;;;;;;;;5077402;27;47682;-72
2023/12/14 11:13:46;;;;;;;;;4.00;3.00;;;;;;;;5091284;27;45455;-71
2023/12/14 11:16:11;;;;;;;;;4.00;2.33;;;;;;;;5095554;27;45294;-70
2023/12/14 11:18:36;;;;;;;;;4.00;3.00;;;;;;;;5089066;27;45374;-70
2023/12/14 11:21:01;;;;;;;;;4.00;1.00;;;;;;;;5096526;27;46466;-70
2023/12/14 11:23:31;;;;;;;;;2.00;2.00;;;;;;;;5096942;27;45524;-71
2023/12/14 11:25:57;;;;;;;;;3.00;1.67;;;;;;;;5094772;27;45428;-72
2023/12/14 11:28:22;;;;;;;;;3.00;3.00;;;;;;;;5095128;27;45700;-70
2023/12/14 11:30:48;;;;;;;;;2.00;2.00;;;;;;;;5093987;27;45670;-70
2023/12/14 11:33:14;;;;;;;;;2.00;2.00;;;;;;;;5095787;27;45443;-68
2023/12/14 11:35:39;;;;;;;;;5.00;2.00;;;;;;;;5092788;27;45484;-72
2023/12/14 11:38:12;;;;;;;;;3.00;2.00;;;;;;;;5095582;27;45433;-68
2023/12/14 11:40:38;;;;;;;;;4.00;2.33;;;;;;;;5096068;27;46718;-67
2023/12/14 11:43:07;;;;;;;;;2.67;1.00;;;;;;;;5096514;27;45484;-67
2023/12/14 11:45:33;;;;;;;;;2.67;2.33;;;;;;;;5095369;27;45291;-69
2023/12/14 11:47:58;;;;;;;;;3.00;2.00;;;;;;;;5096613;27;45725;-67
2023/12/14 11:50:23;;;;;;;;;1.67;1.67;;;;;;;;5091052;27;45853;-67
2023/12/14 11:52:49;;;;;;;;;3.00;3.00;;;;;;;;5088409;27;45482;-68
2023/12/14 11:55:14;;;;;;;;;2.00;2.00;;;;;;;;5099889;27;45412;-69
2023/12/14 11:57:39;;;;;;;;;3.00;3.00;;;;;;;;5099713;27;45674;-66
2023/12/14 12:00:06;;;;;;;;;2.00;2.00;;;;;;;;5097041;27;45960;-67
2023/12/14 12:02:32;;;;;;;;;1.00;1.00;;;;;;;;5097183;27;45551;-67
2023/12/14 12:04:57;;;;;;;;;3.00;1.00;;;;;;;;5100205;27;45488;-69
2023/12/14 12:07:22;;;;;;;;;2.00;1.67;;;;;;;;5096058;27;45645;-69
2023/12/14 12:09:48;;;;;;;;;5.00;2.00;;;;;;;;5099544;27;46612;-67
2023/12/14 12:12:13;;;;;;;;;1.00;1.00;;;;;;;;5097362;27;45401;-70
2023/12/14 12:14:41;;;;;;;;;4.33;3.33;;;;;;;;5099542;27;45386;-66
2023/12/14 12:17:07;;;;;;;;;4.67;2.00;;;;;;;;5091939;27;45235;-67
2023/12/14 12:19:33;;;;;;;;;2.00;2.00;;;;;;;;5099253;27;46589;-68
2023/12/14 12:21:58;;;;;;;;;4.67;3.00;;;;;;;;5091954;27;45402;-68
2023/12/14 12:24:23;;;;;;;;;2.00;2.00;;;;;;;;5099603;27;45194;-69
2023/12/14 12:26:48;;;;;;;;;5.00;3.00;;;;;;;;5099320;27;45320;-67
2023/12/14 12:29:13;;;;;;;;;3.00;1.67;;;;;;;;5095859;27;45690;-68
2023/12/14 12:31:39;;;;;;;;;2.00;1.33;;;;;;;;5090086;27;45197;-68
2023/12/14 12:34:05;;;;;;;;;4.67;2.67;;;;;;;;5093738;27;45425;-68
2023/12/14 12:36:30;;;;;;;;;4.00;1.00;;;;;;;;5070752;27;45564;-69
2023/12/14 12:38:55;;;;;;;;;2.00;2.00;;;;;;;;5093955;27;46073;-70
2023/12/14 12:41:20;;;;;;;;;2.33;1.00;;;;;;;;5091286;27;45789;-69
2023/12/14 12:43:45;;;;;;;;;5.00;2.00;;;;;;;;5091964;27;45447;-69
2023/12/14 12:46:11;;;;;;;;;2.67;2.00;;;;;;;;5096171;27;45589;-69
2023/12/14 12:48:36;;;;;;;;;2.00;2.00;;;;;;;;5093972;27;46679;-71
2023/12/14 12:51:01;;;;;;;;;3.33;2.00;;;;;;;;5097257;27;45333;-69
2023/12/14 12:53:27;;;;;;;;;1.00;1.00;;;;;;;;5098003;27;45425;-70
2023/12/14 12:55:52;;;;;;;;;5.67;2.00;;;;;;;;5096158;27;45437;-69
2023/12/14 12:58:17;;;;;;;;;1.67;1.67;;;;;;;;5092399;27;46710;-71
2023/12/14 13:00:42;;;;;;;;;2.00;2.00;;;;;;;;5091274;27;45332;-70
2023/12/14 13:03:07;;;;;;;;;4.33;2.00;;;;;;;;5091077;27;45587;-73
2023/12/14 13:05:33;;;;;;;;;3.33;2.00;;;;;;;;5091121;27;46225;-70
2023/12/14 13:07:58;;;;;;;;;1.67;1.00;;;;;;;;5092403;27;45641;-69
2023/12/14 13:10:26;;;;;;;;;1.00;1.00;;;;;;;;5096889;27;45487;-69
2023/12/14 13:12:52;;;;;;;;;5.33;4.00;;;;;;;;5095004;27;45570;-69
2023/12/14 13:15:18;;;;;;;;;7.00;2.00;;;;;;;;5095362;27;45501;-71
2023/12/14 13:17:44;;;;;;;;;1.33;1.33;;;;;;;;5096885;27;47001;-69
2023/12/14 13:20:09;;;;;;;;;3.00;2.00;;;;;;;;5090881;27;45511;-69
2023/12/14 13:22:34;;;;;;;;;2.00;2.00;;;;;;;;5085571;27;45222;-71
2023/12/14 13:25:00;;;;;;;;;3.33;2.33;;;;;;;;5097673;27;45586;-69
2023/12/14 13:27:25;;;;;;;;;5.00;2.00;;;;;;;;5097253;27;46820;-69
2023/12/14 13:29:50;;;;;;;;;3.00;2.00;;;;;;;;5090838;27;45451;-70
2023/12/14 13:32:15;;;;;;;;;4.67;1.67;;;;;;;;5084814;27;45521;-70
2023/12/14 13:34:41;;;;;;;;;9.00;2.00;;;;;;;;5086487;27;45522;-69
2023/12/14 13:37:08;;;;;;;;;2.67;2.00;;;;;;;;5093647;27;46058;-70
2023/12/14 13:39:34;;;;;;;;;3.67;2.00;;;;;;;;5094265;27;45472;-71
2023/12/14 13:41:59;;;;;;;;;3.00;2.00;;;;;;;;5095447;27;45457;-73
2023/12/14 13:44:25;;;;;;;;;3.67;2.00;;;;;;;;5096299;27;45759;-71
2023/12/14 13:46:50;;;;;;;;;4.00;2.00;;;;;;;;5093760;27;46133;-72
2023/12/14 13:49:15;;;;;;;;;4.33;3.00;;;;;;;;5094695;27;45394;-69
2023/12/14 13:51:40;;;;;;;;;2.00;2.00;;;;;;;;5092780;27;46915;-70
2023/12/14 13:54:05;;;;;;;;;3.00;3.00;;;;;;;;5096349;27;45586;-70
2023/12/14 13:56:31;;;;;;;;;2.33;2.00;;;;;;;;5094920;27;45631;-71
2023/12/14 13:58:56;;;;;;;;;1.67;1.00;;;;;;;;5093520;27;45555;-70
2023/12/14 14:01:21;;;;;;;;;2.00;2.00;;;;;;;;5088873;27;45516;-71
2023/12/14 14:03:46;;;;;;;;;2.67;1.00;;;;;;;;5089670;27;45635;-69
2023/12/14 14:06:12;;;;;;;;;5.00;2.00;;;;;;;;5089521;27;45942;-70
2023/12/14 14:08:37;;;;;;;;;1.00;1.00;;;;;;;;5092522;27;45495;-69
2023/12/14 14:11:02;;;;;;;;;2.33;2.00;;;;;;;;5087952;27;45410;-70
2023/12/14 14:13:28;;;;;;;;;3.00;1.00;;;;;;;;5091017;27;45496;-68
2023/12/14 14:15:53;;;;;;;;;1.00;1.00;;;;;;;;5094097;27;46732;-71
2023/12/14 14:18:18;;;;;;;;;2.33;1.67;;;;;;;;5095301;27;45311;-68
2023/12/14 14:20:43;;;;;;;;;2.67;0.67;;;;;;;;5093489;27;45514;-69
2023/12/14 14:23:09;;;;;;;;;1.00;1.00;;;;;;;;5086707;27;45868;-70
2023/12/14 14:25:34;;;;;;;;;3.33;2.00;;;;;;;;5072656;27;46636;-71
2023/12/14 14:28:00;;;;;;;;;4.00;1.00;;;;;;;;5072574;27;45512;-69
2023/12/14 14:30:25;;;;;;;;;1.00;1.00;;;;;;;;5092032;27;45452;-69
2023/12/14 14:32:51;;;;;;;;;4.00;1.00;;;;;;;;5091626;27;45400;-71
2023/12/14 14:35:17;;;;;;;;;0.00;0.00;;;;;;;;5092081;27;46932;-73
2023/12/14 14:37:45;;;;;;;;;2.00;1.00;;;;;;;;5094013;27;45354;-70
2023/12/14 14:40:11;;;;;;;;;2.00;1.00;;;;;;;;5092354;27;45536;-69
2023/12/14 14:42:36;;;;;;;;;3.00;1.00;;;;;;;;5087550;27;45458;-71
2023/12/14 14:45:01;;;;;;;;;1.33;1.00;;;;;;;;5092044;27;45862;-69
2023/12/14 14:47:27;;;;;;;;;1.67;1.67;;;;;;;;5075755;27;45461;-71
2023/12/14 14:49:56;;;;;;;;;2.00;1.00;;;;;;;;5095963;27;45418;-69
2023/12/14 14:52:21;;;;;;;;;1.33;1.33;;;;;;;;5092701;27;45734;-69